createdAt,value
2023-04-02T00:02:31.006Z,6.90
2023-04-02T00:05:34.657Z,9.00
2023-04-02T00:08:10.135Z,8.40
2023-04-02T00:13:33.080Z,8.50
2023-04-02T00:16:06.687Z,8.50
2023-04-02T00:18:45.344Z,10.60
2023-04-02T00:21:22.511Z,10.20
2023-04-02T00:23:54.811Z,10.90
2023-04-02T00:26:31.870Z,11.00
2023-04-02T00:29:04.918Z,10.30
2023-04-02T00:31:39.394Z,11.90
2023-04-02T00:34:16.390Z,11.40
2023-04-02T00:36:51.491Z,9.60
2023-04-02T00:42:05.269Z,9.20
2023-04-02T00:44:43.093Z,11.30
2023-04-02T00:47:20.389Z,10.50
2023-04-02T00:49:57.097Z,11.20
2023-04-02T00:52:30.298Z,11.40
2023-04-02T00:55:08.025Z,11.70
2023-04-02T00:57:43.004Z,12.30
2023-04-02T01:00:29.349Z,10.10
2023-04-02T01:03:34.487Z,7.40
2023-04-02T01:06:11.711Z,7.30
2023-04-02T01:08:54.185Z,6.60
2023-04-02T01:11:39.378Z,7.30
2023-04-02T01:14:19.998Z,7.90
2023-04-02T01:16:56.356Z,7.20
2023-04-02T01:20:15.892Z,7.70
2023-04-02T01:22:56.210Z,7.90
2023-04-02T01:25:31.722Z,7.10
2023-04-02T01:28:08.576Z,8.10
2023-04-02T01:30:39.953Z,6.90
2023-04-02T01:33:10.934Z,5.80
2023-04-02T01:35:46.166Z,6.40
2023-04-02T01:38:25.927Z,5.60
2023-04-02T01:41:04.992Z,5.70
2023-04-02T01:43:42.173Z,6.70
2023-04-02T01:51:46.694Z,4.80
2023-04-02T01:54:20.715Z,5.40
2023-04-02T01:56:52.912Z,5.10
2023-04-02T01:59:24.711Z,5.10
2023-04-02T02:02:05.306Z,6.00
2023-04-02T02:04:37.699Z,4.90
2023-04-02T02:07:17.552Z,5.00
2023-04-02T02:09:52.104Z,6.70
2023-04-02T02:12:23.512Z,5.40
2023-04-02T02:14:54.499Z,5.10
2023-04-02T02:17:34.571Z,5.20
2023-04-02T02:20:11.129Z,8.40
2023-04-02T02:22:45.187Z,6.00
2023-04-02T02:25:19.471Z,4.90
2023-04-02T02:28:07.488Z,5.40
2023-04-02T02:30:44.251Z,5.50
2023-04-02T02:33:22.099Z,6.00
2023-04-02T02:35:57.753Z,6.70
2023-04-02T02:38:54.288Z,6.20
2023-04-02T02:41:37.068Z,5.40
2023-04-02T02:44:15.514Z,8.00
2023-04-02T02:46:51.894Z,6.10
2023-04-02T02:49:28.520Z,7.30
2023-04-02T02:52:07.824Z,5.70
2023-04-02T02:54:48.984Z,7.60
2023-04-02T02:57:23.619Z,7.70
2023-04-02T02:59:56.252Z,7.40
2023-04-02T03:02:29.256Z,9.00
2023-04-02T03:05:02.913Z,5.80
2023-04-02T03:07:37.342Z,7.20
2023-04-02T03:10:16.248Z,9.40
2023-04-02T03:12:52.861Z,7.60
2023-04-02T03:15:34.427Z,7.90
2023-04-02T03:18:13.067Z,8.40
2023-04-02T03:20:49.790Z,6.60
2023-04-02T03:23:24.772Z,6.40
2023-04-02T03:26:02.810Z,7.20
2023-04-02T03:28:37.492Z,11.10
2023-04-02T03:31:16.064Z,7.70
2023-04-02T03:33:52.230Z,12.40
2023-04-02T03:36:29.720Z,9.00
2023-04-02T03:39:10.164Z,9.80
2023-04-02T03:41:46.229Z,9.40
2023-04-02T03:44:27.508Z,9.00
2023-04-02T03:47:02.603Z,16.00
2023-04-02T03:49:39.662Z,10.10
2023-04-02T03:52:14.560Z,10.80
2023-04-02T03:54:53.916Z,10.00
2023-04-02T03:57:30.815Z,12.00
2023-04-02T04:00:07.059Z,11.50
2023-04-02T04:02:48.976Z,13.90
2023-04-02T04:05:27.445Z,15.50
2023-04-02T04:08:04.637Z,12.30
2023-04-02T04:10:36.186Z,13.30
2023-04-02T04:13:12.949Z,15.00
2023-04-02T04:15:50.176Z,15.30
2023-04-02T04:18:38.059Z,16.10
2023-04-02T04:21:29.919Z,16.00
2023-04-02T04:24:08.128Z,21.60
2023-04-02T04:29:26.925Z,16.10
2023-04-02T04:32:11.061Z,13.50
2023-04-02T04:34:51.700Z,16.20
2023-04-02T04:37:29.239Z,24.40
2023-04-02T04:40:05.629Z,14.10
2023-04-02T04:42:41.247Z,14.00
2023-04-02T04:45:27.145Z,15.20
2023-04-02T04:48:02.868Z,14.80
2023-04-02T04:50:39.794Z,14.50
2023-04-02T04:53:17.374Z,11.90
2023-04-02T04:55:53.444Z,12.60
2023-04-02T04:58:28.979Z,14.50
2023-04-02T05:03:39.183Z,18.00
2023-04-02T05:06:25.329Z,17.00
2023-04-02T05:09:02.425Z,18.50
2023-04-02T05:11:38.260Z,24.00
2023-04-02T05:14:17.228Z,22.30
2023-04-02T05:16:55.334Z,19.00
2023-04-02T05:19:35.774Z,19.60
2023-04-02T05:22:21.777Z,23.60
2023-04-02T05:25:01.232Z,29.10
2023-04-02T05:27:39.040Z,23.10
2023-04-02T05:30:34.354Z,23.60
2023-04-02T05:33:15.192Z,27.00
2023-04-02T05:35:50.489Z,25.50
2023-04-02T05:38:24.824Z,30.30
2023-04-02T05:41:02.350Z,24.00
2023-04-02T05:43:38.249Z,21.20
2023-04-02T05:46:18.546Z,20.60
2023-04-02T05:48:56.532Z,18.60
2023-04-02T05:51:36.735Z,20.80
2023-04-02T05:54:23.520Z,17.90
2023-04-02T05:57:06.146Z,15.30
2023-04-02T05:59:43.114Z,15.00
2023-04-02T06:02:23.886Z,13.50
2023-04-02T06:04:58.862Z,16.10
2023-04-02T06:07:41.975Z,14.90
2023-04-02T06:10:18.145Z,13.70
2023-04-02T06:12:54.328Z,11.80
2023-04-02T06:15:26.071Z,12.20
2023-04-02T06:18:07.707Z,10.50
2023-04-02T06:20:39.240Z,12.50
2023-04-02T06:23:17.552Z,10.20
2023-04-02T06:25:54.506Z,14.50
2023-04-02T06:28:31.816Z,10.60
2023-04-02T06:31:09.116Z,13.00
2023-04-02T06:33:41.042Z,10.50
2023-04-02T06:36:13.449Z,9.50
2023-04-02T06:38:46.416Z,9.10
2023-04-02T06:41:21.485Z,8.80
2023-04-02T06:44:17.678Z,10.00
2023-04-02T06:47:00.049Z,10.00
2023-04-02T06:49:39.760Z,12.30
2023-04-02T06:52:20.440Z,10.90
2023-04-02T06:54:52.113Z,12.20
2023-04-02T06:57:22.956Z,10.80
2023-04-02T06:59:55.590Z,10.30
2023-04-02T07:02:33.847Z,10.60
2023-04-02T07:05:09.256Z,11.30
2023-04-02T07:07:45.655Z,10.70
2023-04-02T07:10:32.941Z,12.70
2023-04-02T07:13:29.172Z,10.30
2023-04-02T07:16:05.019Z,9.10
2023-04-02T07:18:36.968Z,10.20
2023-04-02T07:21:10.132Z,11.60
2023-04-02T07:23:41.991Z,12.10
2023-04-02T07:26:17.736Z,10.20
2023-04-02T07:28:49.147Z,11.50
2023-04-02T07:31:23.648Z,11.90
2023-04-02T07:33:55.862Z,12.70
2023-04-02T07:36:28.155Z,11.80
2023-04-02T07:38:59.165Z,10.30
2023-04-02T07:41:32.669Z,10.90
2023-04-02T07:44:05.054Z,10.30
2023-04-02T07:46:35.954Z,13.20
2023-04-02T07:49:07.719Z,13.00
2023-04-02T07:51:38.724Z,13.10
2023-04-02T07:54:10.318Z,10.60
2023-04-02T07:56:41.346Z,10.70
2023-04-02T07:59:12.455Z,12.40
2023-04-02T08:01:43.454Z,10.60
2023-04-02T08:04:20.055Z,17.20
2023-04-02T08:06:52.997Z,12.40
2023-04-02T08:09:23.868Z,11.10
2023-04-02T08:11:54.772Z,13.50
2023-04-02T08:14:25.559Z,12.10
2023-04-02T08:16:57.527Z,12.00
2023-04-02T08:19:28.629Z,11.30
2023-04-02T08:21:59.512Z,11.20
2023-04-02T08:24:30.343Z,11.80
2023-04-02T08:27:02.460Z,12.40
2023-04-02T08:29:33.677Z,11.10
2023-04-02T08:32:04.785Z,10.80
2023-04-02T08:34:35.574Z,10.80
2023-04-02T08:37:06.635Z,10.80
2023-04-02T08:39:37.415Z,12.50
2023-04-02T08:42:19.416Z,11.20
2023-04-02T08:45:21.271Z,10.80
2023-04-02T08:48:00.078Z,11.30
2023-04-02T08:50:35.553Z,10.70
2023-04-02T08:55:43.392Z,12.90
2023-04-02T08:58:28.499Z,11.30
2023-04-02T09:01:02.925Z,7.60
2023-04-02T09:03:40.455Z,9.90
2023-04-02T09:06:16.445Z,8.40
2023-04-02T09:08:51.769Z,9.30
2023-04-02T09:11:27.343Z,8.30
2023-04-02T09:14:00.436Z,10.10
2023-04-02T09:16:48.720Z,8.00
2023-04-02T09:19:23.848Z,9.40
2023-04-02T09:22:09.662Z,8.90
2023-04-02T09:24:40.654Z,8.80
2023-04-02T09:27:21.480Z,8.50
2023-04-02T09:29:56.383Z,6.70
2023-04-02T09:32:39.385Z,7.10
2023-04-02T09:35:25.567Z,9.90
2023-04-02T09:38:21.056Z,7.40
2023-04-02T09:40:59.727Z,6.30
2023-04-02T09:43:32.574Z,9.30
2023-04-02T09:46:05.843Z,8.20
2023-04-02T09:48:43.532Z,5.70
2023-04-02T09:51:21.790Z,7.90
2023-04-02T09:54:07.387Z,5.40
2023-04-02T09:56:39.960Z,6.90
2023-04-02T09:59:18.501Z,5.90
2023-04-02T10:01:58.388Z,6.00
2023-04-02T10:04:48.644Z,7.10
2023-04-02T10:07:38.303Z,5.70
2023-04-02T10:10:25.239Z,5.40
2023-04-02T10:13:07.895Z,5.00
2023-04-02T10:15:45.783Z,6.00
2023-04-02T10:18:22.746Z,6.30
2023-04-02T10:20:55.982Z,5.00
2023-04-02T10:23:33.196Z,3.80
2023-04-02T10:26:20.623Z,6.00
2023-04-02T10:29:14.496Z,5.40
2023-04-02T10:32:04.643Z,5.40
2023-04-02T10:34:44.498Z,6.00
2023-04-02T10:37:52.247Z,4.20
2023-04-02T10:40:29.649Z,5.70
2023-04-02T10:43:23.331Z,7.20
2023-04-02T10:46:01.497Z,4.10
2023-04-02T10:48:41.441Z,4.70
2023-04-02T10:51:26.454Z,4.20
2023-04-02T10:54:04.775Z,3.80
2023-04-02T10:56:44.421Z,5.00
2023-04-02T11:01:57.040Z,5.90
2023-04-02T11:07:18.132Z,11.40
2023-04-02T11:09:56.463Z,9.50
2023-04-02T11:12:34.551Z,6.40
2023-04-02T11:15:19.354Z,6.50
2023-04-02T11:17:51.016Z,9.10
2023-04-02T11:20:52.972Z,15.90
2023-04-02T11:24:30.588Z,9.90
2023-04-02T11:27:19.932Z,9.60
2023-04-02T11:30:14.453Z,10.10
2023-04-02T11:32:49.676Z,9.10
2023-04-02T11:35:40.928Z,10.10
2023-04-02T11:39:04.607Z,10.70
2023-04-02T11:42:25.080Z,10.50
2023-04-02T11:44:59.645Z,11.10
2023-04-02T11:47:35.149Z,11.20
2023-04-02T11:50:29.774Z,9.00
2023-04-02T11:53:06.791Z,8.40
2023-04-02T11:55:46.001Z,8.50
2023-04-02T11:59:04.169Z,8.20
2023-04-02T12:02:08.847Z,9.20
2023-04-02T12:05:14.911Z,12.10
2023-04-02T12:08:17.999Z,14.60
2023-04-02T12:11:00.636Z,8.90
2023-04-02T12:13:54.626Z,7.80
2023-04-02T12:16:31.717Z,10.50
2023-04-02T12:19:47.953Z,9.40
2023-04-02T12:23:02.404Z,9.70
2023-04-02T12:25:40.562Z,8.00
2023-04-02T12:28:56.289Z,8.00
2023-04-02T12:31:30.414Z,9.80
2023-04-02T12:34:03.902Z,9.10
2023-04-02T12:36:36.325Z,6.90
2023-04-02T12:39:19.701Z,6.80
2023-04-02T12:41:50.740Z,9.10
2023-04-02T12:44:23.433Z,8.20
2023-04-02T12:46:54.740Z,7.00
2023-04-02T12:49:37.769Z,6.80
2023-04-02T12:52:11.870Z,9.00
2023-04-02T12:54:50.847Z,7.00
2023-04-02T12:57:41.256Z,7.00
2023-04-02T13:00:37.895Z,7.60
2023-04-02T13:03:34.980Z,5.80
2023-04-02T13:06:19.419Z,6.30
2023-04-02T13:08:52.993Z,7.90
2023-04-02T13:11:38.478Z,8.90
2023-04-02T13:14:22.124Z,8.90
2023-04-02T13:16:53.087Z,8.10
2023-04-02T13:19:34.114Z,8.70
2023-04-02T13:22:28.669Z,7.30
2023-04-02T13:25:00.143Z,6.30
2023-04-02T13:27:30.957Z,8.20
2023-04-02T13:30:21.850Z,5.90
2023-04-02T13:32:59.601Z,7.00
2023-04-02T13:35:33.445Z,6.70
2023-04-02T13:38:05.926Z,8.60
2023-04-02T13:40:38.409Z,5.80
2023-04-02T13:43:18.723Z,5.70
2023-04-02T13:45:54.248Z,5.40
2023-04-02T13:48:29.109Z,8.20
2023-04-02T13:50:59.983Z,8.80
2023-04-02T13:53:34.395Z,8.40
2023-04-02T13:56:06.559Z,6.90
2023-04-02T13:58:37.401Z,7.50
2023-04-02T14:01:11.378Z,7.00
2023-04-02T14:03:45.498Z,10.10
2023-04-02T14:06:28.189Z,5.00
2023-04-02T14:09:07.062Z,5.40
2023-04-02T14:11:52.624Z,6.50
2023-04-02T14:17:10.719Z,4.40
2023-04-02T14:20:04.990Z,4.80
2023-04-02T14:22:51.747Z,5.20
2023-04-02T14:25:33.289Z,4.60
2023-04-02T14:28:16.756Z,6.90
2023-04-02T14:30:57.906Z,6.20
2023-04-02T14:37:05.259Z,5.30
2023-04-02T14:40:04.429Z,5.20
2023-04-02T14:42:46.034Z,4.80
2023-04-02T14:45:24.876Z,6.00
2023-04-02T14:48:02.165Z,5.60
2023-04-02T14:50:39.046Z,6.90
2023-04-02T14:53:18.397Z,7.10
2023-04-02T14:56:19.761Z,7.40
2023-04-02T14:59:04.808Z,6.90
2023-04-02T15:02:24.689Z,9.90
2023-04-02T15:05:01.625Z,6.90
2023-04-02T15:07:45.884Z,6.30
2023-04-02T15:10:27.431Z,8.00
2023-04-02T15:13:01.453Z,8.00
2023-04-02T15:15:42.444Z,6.50
2023-04-02T15:18:16.813Z,6.10
2023-04-02T15:21:02.314Z,7.70
2023-04-02T15:24:23.251Z,9.70
2023-04-02T15:27:05.479Z,8.10
2023-04-02T15:29:58.978Z,7.60
2023-04-02T15:32:41.537Z,7.80
2023-04-02T15:35:44.151Z,8.00
2023-04-02T15:38:24.017Z,8.20
2023-04-02T15:40:58.841Z,6.90
2023-04-02T15:43:35.661Z,7.50
2023-04-02T15:46:23.498Z,7.90
2023-04-02T15:53:19.011Z,7.10
2023-04-02T15:55:56.003Z,7.30
2023-04-02T15:58:47.476Z,8.20
2023-04-02T16:01:31.321Z,13.60
2023-04-02T16:04:37.072Z,11.20
2023-04-02T16:07:25.266Z,7.10
2023-04-02T16:10:12.209Z,8.40
2023-04-02T16:12:44.657Z,7.60
2023-04-02T16:15:26.607Z,8.20
2023-04-02T16:18:01.750Z,7.00
2023-04-02T16:20:41.738Z,7.70
2023-04-02T16:23:56.923Z,8.00
2023-04-02T16:27:26.753Z,9.70
2023-04-02T16:30:33.085Z,9.20
2023-04-02T16:33:27.323Z,6.30
2023-04-02T16:36:44.653Z,5.70
2023-04-02T16:39:30.632Z,6.80
2023-04-02T16:42:16.194Z,6.30
2023-04-02T16:48:31.199Z,8.10
2023-04-02T17:15:51.471Z,8.80
2023-04-02T17:18:26.686Z,9.10
2023-04-02T17:23:55.710Z,7.70
2023-04-02T17:26:37.164Z,8.00
2023-04-02T17:29:25.979Z,9.20
2023-04-02T17:32:08.967Z,8.50
2023-04-02T17:34:41.803Z,11.30
2023-04-02T17:37:31.614Z,10.70
2023-04-02T17:40:25.511Z,12.10
2023-04-02T17:43:04.587Z,16.00
2023-04-02T17:45:43.974Z,15.40
2023-04-02T17:48:27.489Z,13.90
2023-04-02T17:51:09.889Z,10.90
2023-04-02T17:54:04.129Z,12.40
2023-04-02T18:01:02.153Z,11.50
2023-04-02T18:04:31.887Z,10.40
2023-04-02T18:07:18.016Z,11.00
2023-04-02T18:09:53.857Z,12.20
2023-04-02T18:12:42.499Z,11.00
2023-04-02T18:15:38.021Z,10.30
2023-04-02T18:18:19.967Z,8.10
2023-04-02T18:21:02.420Z,8.70
2023-04-02T18:23:49.351Z,5.70
2023-04-02T18:26:31.622Z,5.50
2023-04-02T18:29:19.604Z,7.40
2023-04-02T18:31:58.834Z,7.20
2023-04-02T18:34:50.600Z,8.10
2023-04-02T18:37:29.819Z,8.20
2023-04-02T18:40:22.965Z,9.20
2023-04-02T18:43:13.628Z,6.60
2023-04-02T18:45:56.301Z,9.90
2023-04-02T18:48:44.198Z,8.40
2023-04-02T18:51:23.175Z,7.80
2023-04-02T18:54:04.289Z,6.40
2023-04-02T18:56:38.183Z,8.70
2023-04-02T18:59:34.445Z,8.20
2023-04-02T19:02:24.190Z,7.50
2023-04-02T19:05:03.100Z,9.10
2023-04-02T19:07:39.566Z,7.90
2023-04-02T19:10:31.227Z,6.90
2023-04-02T19:13:02.717Z,6.90
2023-04-02T19:15:45.389Z,8.80
2023-04-02T19:18:26.859Z,10.10
2023-04-02T19:21:02.475Z,7.60
2023-04-02T19:24:04.637Z,9.20
2023-04-02T19:26:43.101Z,11.90
2023-04-02T19:29:34.418Z,10.20
2023-04-02T19:32:12.999Z,9.80
2023-04-02T19:34:52.836Z,10.80
2023-04-02T19:37:47.505Z,16.00
2023-04-02T19:41:00.435Z,12.90
2023-04-02T19:43:54.042Z,13.10
2023-04-02T19:46:32.687Z,11.50
2023-04-02T19:49:13.290Z,13.20
2023-04-02T19:51:47.490Z,14.40
2023-04-02T19:54:18.838Z,12.70
2023-04-02T19:56:52.060Z,13.00
2023-04-02T19:59:23.690Z,12.60
2023-04-02T20:02:10.213Z,10.20
2023-04-02T20:04:42.510Z,13.60
2023-04-02T20:07:13.365Z,11.60
2023-04-02T20:09:45.176Z,8.40
2023-04-02T20:12:16.372Z,10.50
2023-04-02T20:14:47.494Z,9.00
2023-04-02T20:17:18.693Z,9.50
2023-04-02T20:19:50.400Z,13.50
2023-04-02T20:22:21.992Z,16.90
2023-04-02T20:24:55.012Z,6.40
2023-04-02T20:27:26.417Z,8.20
2023-04-02T20:29:59.784Z,8.40
2023-04-02T20:32:35.189Z,10.40
2023-04-02T20:35:09.143Z,6.70
2023-04-02T20:37:41.973Z,5.60
2023-04-02T20:40:13.560Z,7.00
2023-04-02T20:42:44.637Z,5.80
2023-04-02T20:45:16.172Z,6.70
2023-04-02T20:47:47.716Z,7.20
2023-04-02T20:50:19.427Z,7.30
2023-04-02T20:52:51.781Z,7.30
2023-04-02T20:55:22.785Z,7.80
2023-04-02T20:57:53.706Z,9.20
2023-04-02T21:00:24.807Z,5.80
2023-04-02T21:02:56.108Z,6.10
2023-04-02T21:05:27.777Z,4.30
2023-04-02T21:07:59.674Z,6.40
2023-04-02T21:10:30.522Z,9.30
2023-04-02T21:13:01.533Z,4.60
2023-04-02T21:15:35.069Z,3.80
2023-04-02T21:18:07.059Z,4.90
2023-04-02T21:20:38.294Z,4.10
2023-04-02T21:23:09.069Z,3.60
2023-04-02T21:25:39.801Z,3.60
2023-04-02T21:28:10.731Z,6.00
2023-04-02T21:30:41.461Z,3.70
2023-04-02T21:33:12.277Z,4.30
2023-04-02T21:35:46.186Z,3.10
2023-04-02T21:38:16.946Z,6.20
2023-04-02T21:40:47.765Z,5.80
2023-04-02T21:43:18.546Z,6.10
2023-04-02T21:45:49.459Z,4.00
2023-04-02T21:48:20.381Z,3.80
2023-04-02T21:50:51.369Z,3.30
2023-04-02T21:53:22.302Z,5.90
2023-04-02T21:56:01.162Z,5.40
2023-04-02T21:58:31.980Z,4.90
2023-04-02T22:01:05.445Z,5.00
2023-04-02T22:06:10.647Z,4.80
2023-04-02T22:08:43.834Z,2.90
2023-04-02T22:11:17.040Z,4.00
2023-04-02T22:13:49.555Z,4.50
2023-04-02T22:16:22.406Z,3.80
2023-04-02T22:18:55.690Z,3.10
2023-04-02T22:21:27.262Z,4.10
2023-04-02T22:23:59.961Z,3.70
2023-04-02T22:26:32.473Z,6.20
2023-04-02T22:29:04.044Z,2.80
2023-04-02T22:31:35.599Z,3.10
2023-04-02T22:34:07.437Z,3.30
2023-04-02T22:36:38.378Z,6.30
2023-04-02T22:39:12.379Z,4.70
2023-04-02T22:41:43.496Z,3.20
2023-04-02T22:44:17.693Z,3.00
2023-04-02T22:46:48.632Z,3.90
2023-04-02T22:49:19.731Z,4.10
2023-04-02T22:51:50.736Z,3.20
2023-04-02T22:54:21.704Z,26.50
2023-04-02T22:56:52.564Z,3.00
2023-04-02T22:59:23.625Z,3.90
2023-04-02T23:01:54.523Z,4.00
2023-04-02T23:04:25.429Z,3.40
2023-04-02T23:06:56.268Z,3.00
2023-04-02T23:09:27.003Z,3.40
2023-04-02T23:11:57.864Z,7.70
2023-04-02T23:14:28.803Z,4.30
2023-04-02T23:16:59.682Z,5.20
2023-04-02T23:19:30.571Z,5.00
2023-04-02T23:22:01.521Z,3.40
2023-04-02T23:24:32.396Z,4.80
2023-04-02T23:27:03.263Z,3.20
2023-04-02T23:29:34.146Z,3.10
2023-04-02T23:32:05.132Z,2.40
2023-04-02T23:34:36.799Z,6.40
2023-04-02T23:37:07.781Z,3.10
2023-04-02T23:39:39.575Z,4.60
2023-04-02T23:42:11.997Z,2.90
2023-04-02T23:44:42.812Z,7.20
2023-04-02T23:47:13.754Z,3.10
2023-04-02T23:49:47.961Z,3.90
2023-04-02T23:52:18.698Z,3.80
2023-04-02T23:54:49.438Z,3.80
2023-04-02T23:57:20.377Z,4.50
2023-04-02T23:59:51.193Z,4.40
